createdAt,value
2023-02-06T00:01:29.373Z,66.42
2023-02-06T00:03:55.903Z,66.08
2023-02-06T00:06:22.464Z,65.60
2023-02-06T00:08:48.976Z,65.61
2023-02-06T00:11:16.866Z,65.04
2023-02-06T00:13:45.560Z,65.49
2023-02-06T00:16:31.343Z,65.70
2023-02-06T00:18:59.968Z,65.78
2023-02-06T00:21:28.808Z,65.51
2023-02-06T00:23:59.270Z,65.88
2023-02-06T00:26:26.787Z,65.60
2023-02-06T00:28:54.075Z,65.47
2023-02-06T00:31:20.804Z,65.71
2023-02-06T00:33:47.444Z,65.57
2023-02-06T00:36:14.115Z,65.68
2023-02-06T00:38:40.643Z,65.63
2023-02-06T00:41:07.264Z,65.49
2023-02-06T00:43:34.177Z,65.30
2023-02-06T00:46:00.698Z,65.48
2023-02-06T00:48:27.671Z,65.52
2023-02-06T00:50:54.567Z,65.22
2023-02-06T00:53:21.993Z,64.80
2023-02-06T00:55:48.650Z,65.37
2023-02-06T00:58:15.415Z,65.21
2023-02-06T01:00:41.941Z,65.24
2023-02-06T01:03:08.523Z,65.47
2023-02-06T01:05:35.547Z,65.35
2023-02-06T01:08:04.353Z,65.09
2023-02-06T01:10:31.514Z,65.02
2023-02-06T01:12:58.463Z,65.12
2023-02-06T01:15:25.011Z,65.36
2023-02-06T01:17:51.551Z,65.68
2023-02-06T01:20:18.565Z,65.46
2023-02-06T01:22:45.061Z,65.44
2023-02-06T01:25:11.670Z,65.70
2023-02-06T01:27:39.671Z,65.31
2023-02-06T01:30:08.091Z,65.58
2023-02-06T01:32:42.554Z,65.35
2023-02-06T01:35:11.441Z,65.22
2023-02-06T01:37:39.369Z,65.99
2023-02-06T01:40:11.714Z,66.26
2023-02-06T01:42:38.729Z,66.29
2023-02-06T01:45:34.566Z,66.06
2023-02-06T01:48:13.293Z,66.29
2023-02-06T01:50:45.020Z,66.85
2023-02-06T01:53:15.020Z,66.79
2023-02-06T01:55:45.556Z,66.47
2023-02-06T01:58:19.129Z,66.94
2023-02-06T02:00:46.125Z,67.17
2023-02-06T02:03:13.337Z,67.82
2023-02-06T02:05:43.157Z,67.42
2023-02-06T02:08:20.802Z,67.58
2023-02-06T02:10:47.812Z,67.72
2023-02-06T02:13:14.463Z,67.01
2023-02-06T02:16:00.977Z,66.86
2023-02-06T02:19:05.141Z,67.15
2023-02-06T02:21:51.093Z,66.98
2023-02-06T02:25:14.915Z,66.88
2023-02-06T02:28:23.072Z,66.98
2023-02-06T02:31:59.960Z,66.64
2023-02-06T02:34:43.027Z,67.71
2023-02-06T02:37:31.343Z,67.45
2023-02-06T02:40:12.361Z,67.80
2023-02-06T02:42:52.666Z,67.39
2023-02-06T02:45:29.170Z,67.50
2023-02-06T02:48:12.750Z,67.36
2023-02-06T02:50:40.642Z,67.76
2023-02-06T02:53:08.068Z,67.75
2023-02-06T02:55:35.174Z,68.04
2023-02-06T02:58:16.759Z,68.12
2023-02-06T03:00:54.982Z,68.56
2023-02-06T03:03:25.988Z,68.94
2023-02-06T03:06:04.164Z,68.90
2023-02-06T03:09:20.589Z,69.65
2023-02-06T03:12:06.432Z,69.10
2023-02-06T03:14:44.087Z,68.96
2023-02-06T03:17:19.381Z,68.80
2023-02-06T03:19:53.572Z,68.59
2023-02-06T03:22:21.660Z,68.52
2023-02-06T03:24:50.945Z,68.78
2023-02-06T03:27:19.785Z,68.42
2023-02-06T03:29:51.294Z,68.47
2023-02-06T03:32:25.882Z,68.42
2023-02-06T03:35:25.211Z,68.55
2023-02-06T03:37:52.663Z,68.73
2023-02-06T03:40:19.755Z,68.99
2023-02-06T03:42:56.164Z,68.78
2023-02-06T03:45:38.680Z,68.53
2023-02-06T03:48:18.768Z,68.40
2023-02-06T03:50:50.162Z,68.88
2023-02-06T03:53:19.210Z,68.80
2023-02-06T03:55:47.840Z,68.85
2023-02-06T03:58:19.156Z,68.78
2023-02-06T04:00:47.967Z,68.95
2023-02-06T04:03:15.210Z,68.95
2023-02-06T04:05:42.053Z,68.89
2023-02-06T04:08:08.575Z,68.50
2023-02-06T04:10:35.084Z,68.25
2023-02-06T04:13:01.581Z,68.01
2023-02-06T04:15:28.100Z,68.06
2023-02-06T04:18:00.332Z,68.44
2023-02-06T04:20:29.332Z,68.84
2023-02-06T04:22:56.870Z,68.57
2023-02-06T04:25:23.819Z,69.11
2023-02-06T04:27:50.772Z,69.09
2023-02-06T04:30:18.130Z,69.22
2023-02-06T04:32:44.815Z,68.99
2023-02-06T04:35:11.305Z,69.16
2023-02-06T04:37:37.834Z,69.10
2023-02-06T04:40:05.074Z,68.97
2023-02-06T04:42:31.569Z,68.95
2023-02-06T04:44:58.049Z,68.91
2023-02-06T04:47:24.571Z,68.77
2023-02-06T04:49:51.244Z,69.39
2023-02-06T04:52:17.819Z,69.31
2023-02-06T04:54:44.306Z,69.69
2023-02-06T04:57:10.832Z,69.62
2023-02-06T04:59:37.319Z,69.48
2023-02-06T05:02:03.821Z,69.07
2023-02-06T05:04:30.389Z,68.75
2023-02-06T05:06:56.903Z,68.96
2023-02-06T05:09:23.389Z,69.21
2023-02-06T05:11:49.847Z,69.05
2023-02-06T05:14:16.308Z,68.58
2023-02-06T05:16:43.879Z,68.77
2023-02-06T05:19:10.740Z,68.99
2023-02-06T05:21:38.752Z,69.28
2023-02-06T05:24:05.567Z,69.21
2023-02-06T05:26:32.056Z,68.60
2023-02-06T05:28:58.636Z,68.49
2023-02-06T05:31:25.142Z,68.38
2023-02-06T05:33:52.562Z,68.51
2023-02-06T05:36:20.193Z,68.55
2023-02-06T05:38:48.458Z,69.47
2023-02-06T05:41:15.889Z,69.95
2023-02-06T05:43:42.615Z,70.58
2023-02-06T05:46:09.509Z,70.18
2023-02-06T05:48:36.066Z,70.31
2023-02-06T05:51:02.886Z,70.32
2023-02-06T05:53:29.861Z,71.01
2023-02-06T05:55:57.343Z,71.19
2023-02-06T05:58:24.273Z,71.15
2023-02-06T06:00:50.920Z,71.06
2023-02-06T06:03:17.420Z,70.57
2023-02-06T06:05:43.975Z,70.17
2023-02-06T06:08:10.472Z,69.80
2023-02-06T06:10:36.905Z,69.64
2023-02-06T06:13:03.848Z,69.51
2023-02-06T06:15:30.287Z,69.85
2023-02-06T06:17:56.737Z,69.98
2023-02-06T06:20:23.446Z,70.04
2023-02-06T06:22:50.082Z,70.35
2023-02-06T06:25:16.820Z,70.93
2023-02-06T06:27:43.460Z,70.63
2023-02-06T06:30:11.095Z,70.66
2023-02-06T06:32:37.600Z,71.09
2023-02-06T06:35:04.462Z,71.07
2023-02-06T06:37:30.917Z,70.83
2023-02-06T06:39:57.429Z,70.24
2023-02-06T06:42:23.987Z,70.31
2023-02-06T06:44:50.440Z,69.96
2023-02-06T06:47:17.312Z,70.04
2023-02-06T06:49:43.813Z,69.93
2023-02-06T06:52:22.993Z,70.04
2023-02-06T06:54:52.341Z,70.67
2023-02-06T06:57:19.390Z,70.71
2023-02-06T06:59:45.961Z,70.50
2023-02-06T07:02:12.427Z,70.22
2023-02-06T07:04:39.026Z,70.41
2023-02-06T07:07:05.968Z,70.61
2023-02-06T07:09:32.547Z,70.59
2023-02-06T07:11:59.027Z,70.57
2023-02-06T07:14:25.569Z,70.31
2023-02-06T07:16:52.149Z,69.81
2023-02-06T07:19:18.797Z,68.91
2023-02-06T07:21:45.347Z,69.31
2023-02-06T07:24:11.862Z,69.16
2023-02-06T07:26:38.310Z,69.74
2023-02-06T07:29:04.846Z,69.68
2023-02-06T07:31:32.022Z,70.23
2023-02-06T07:33:59.860Z,70.10
2023-02-06T07:36:26.426Z,70.44
2023-02-06T07:38:52.924Z,70.76
2023-02-06T07:41:19.472Z,71.04
2023-02-06T07:43:46.011Z,71.44
2023-02-06T07:46:12.587Z,71.48
2023-02-06T07:48:39.259Z,71.07
2023-02-06T07:51:08.837Z,71.09
2023-02-06T07:53:36.460Z,70.74
2023-02-06T07:56:10.366Z,70.16
2023-02-06T07:58:36.996Z,69.68
2023-02-06T08:01:05.586Z,69.52
2023-02-06T08:03:33.214Z,69.35
2023-02-06T08:06:00.046Z,69.77
2023-02-06T08:08:27.035Z,70.24
2023-02-06T08:10:53.560Z,70.48
2023-02-06T08:13:20.357Z,70.17
2023-02-06T08:15:46.988Z,70.11
2023-02-06T08:18:13.458Z,69.80
2023-02-06T08:20:39.943Z,69.81
2023-02-06T08:23:07.953Z,70.35
2023-02-06T08:25:35.064Z,71.11
2023-02-06T08:28:01.986Z,71.25
2023-02-06T08:30:28.835Z,71.70
2023-02-06T08:32:55.538Z,71.59
2023-02-06T08:35:22.056Z,71.68
2023-02-06T08:37:49.428Z,71.12
2023-02-06T08:40:16.037Z,70.95
2023-02-06T08:42:42.635Z,71.59
2023-02-06T08:45:09.621Z,71.79
2023-02-06T08:47:36.163Z,72.37
2023-02-06T08:50:03.718Z,71.95
2023-02-06T08:52:30.364Z,71.41
2023-02-06T08:54:56.837Z,70.86
2023-02-06T08:57:23.550Z,70.71
2023-02-06T08:59:51.271Z,70.21
2023-02-06T09:02:17.822Z,70.73
2023-02-06T09:04:44.363Z,71.53
2023-02-06T09:07:10.859Z,71.61
2023-02-06T09:09:37.489Z,71.76
2023-02-06T09:12:04.285Z,71.82
2023-02-06T09:14:31.692Z,71.74
2023-02-06T09:16:58.481Z,71.64
2023-02-06T09:19:26.416Z,71.36
2023-02-06T09:21:53.616Z,70.68
2023-02-06T09:24:20.867Z,70.91
2023-02-06T09:26:59.373Z,70.50
2023-02-06T09:29:31.875Z,70.11
2023-02-06T09:31:58.941Z,69.35
2023-02-06T09:34:26.980Z,68.61
2023-02-06T09:36:54.622Z,68.54
2023-02-06T09:39:21.307Z,67.56
2023-02-06T09:42:06.440Z,66.76
2023-02-06T09:44:44.300Z,66.49
2023-02-06T09:47:30.228Z,67.00
2023-02-06T09:50:19.466Z,66.88
2023-02-06T09:53:25.982Z,66.58
2023-02-06T09:56:09.681Z,66.76
2023-02-06T09:58:59.857Z,66.20
2023-02-06T10:01:54.616Z,65.78
2023-02-06T10:05:14.062Z,66.49
2023-02-06T10:08:11.104Z,66.23
2023-02-06T10:10:47.672Z,66.46
2023-02-06T10:13:22.491Z,66.39
2023-02-06T10:15:56.170Z,65.74
2023-02-06T10:18:41.603Z,66.14
2023-02-06T10:21:32.072Z,64.06
2023-02-06T10:24:15.158Z,64.82
2023-02-06T10:26:41.726Z,64.81
2023-02-06T10:29:27.521Z,64.36
2023-02-06T10:32:05.412Z,64.31
2023-02-06T10:34:45.840Z,62.97
2023-02-06T10:37:52.179Z,63.48
2023-02-06T10:41:08.867Z,62.04
2023-02-06T10:44:14.015Z,62.90
2023-02-06T10:46:44.052Z,63.65
2023-02-06T10:49:35.310Z,61.99
2023-02-06T10:52:34.986Z,62.57
2023-02-06T10:55:16.793Z,61.74
2023-02-06T10:57:47.573Z,62.56
2023-02-06T11:00:25.079Z,61.97
2023-02-06T11:03:07.053Z,61.26
2023-02-06T11:05:34.942Z,60.90
2023-02-06T11:08:22.773Z,59.72
2023-02-06T11:10:50.126Z,61.04
2023-02-06T11:13:35.424Z,59.53
2023-02-06T11:16:12.825Z,60.06
2023-02-06T11:18:46.322Z,59.50
2023-02-06T11:21:15.755Z,59.25
2023-02-06T11:23:42.424Z,58.65
2023-02-06T11:26:14.437Z,57.37
2023-02-06T11:28:55.570Z,55.88
2023-02-06T11:31:50.147Z,57.22
2023-02-06T11:34:29.954Z,58.54
2023-02-06T11:37:36.019Z,56.33
2023-02-06T11:40:22.925Z,57.63
2023-02-06T11:43:27.335Z,58.34
2023-02-06T11:46:29.557Z,57.43
2023-02-06T11:48:55.960Z,56.92
2023-02-06T11:51:24.493Z,55.82
2023-02-06T11:54:28.535Z,54.85
2023-02-06T11:57:04.803Z,56.19
2023-02-06T11:59:35.083Z,55.31
2023-02-06T12:02:25.497Z,54.26
2023-02-06T12:05:01.410Z,53.84
2023-02-06T12:07:42.534Z,54.09
2023-02-06T12:10:19.325Z,54.46
2023-02-06T12:13:02.116Z,54.92
2023-02-06T12:15:47.008Z,55.84
2023-02-06T12:18:23.869Z,55.41
2023-02-06T12:20:59.221Z,55.46
2023-02-06T12:23:43.030Z,54.56
2023-02-06T12:26:20.948Z,55.28
2023-02-06T12:29:19.838Z,55.59
2023-02-06T12:32:16.021Z,54.51
2023-02-06T12:35:04.188Z,53.97
2023-02-06T12:37:59.938Z,51.00
2023-02-06T12:40:51.532Z,53.51
2023-02-06T12:43:19.314Z,53.65
2023-02-06T12:46:05.854Z,52.57
2023-02-06T12:48:45.991Z,49.54
2023-02-06T12:51:35.123Z,49.84
2023-02-06T12:54:17.234Z,49.98
2023-02-06T12:57:06.742Z,52.27
2023-02-06T12:59:57.825Z,52.00
2023-02-06T13:02:58.881Z,51.09
2023-02-06T13:05:36.506Z,52.24
2023-02-06T13:08:10.487Z,52.62
2023-02-06T13:10:38.836Z,53.20
2023-02-06T13:13:06.560Z,53.51
2023-02-06T13:15:41.066Z,53.50
2023-02-06T13:18:36.948Z,52.46
2023-02-06T13:21:29.972Z,52.58
2023-02-06T13:24:02.426Z,51.78
2023-02-06T13:26:53.066Z,52.26
2023-02-06T13:29:35.120Z,51.92
2023-02-06T13:32:10.809Z,52.76
2023-02-06T13:35:12.267Z,52.53
2023-02-06T13:37:44.211Z,53.16
2023-02-06T13:40:23.388Z,53.29
2023-02-06T13:43:07.015Z,53.60
2023-02-06T13:45:42.386Z,51.36
2023-02-06T13:48:44.983Z,51.81
2023-02-06T13:51:42.670Z,50.75
2023-02-06T13:54:24.302Z,52.89
2023-02-06T13:57:15.954Z,53.66
2023-02-06T14:00:11.613Z,51.94
2023-02-06T14:02:42.710Z,53.42
2023-02-06T14:05:33.650Z,53.43
2023-02-06T14:08:43.239Z,53.23
2023-02-06T14:11:50.458Z,53.48
2023-02-06T14:14:37.428Z,53.25
2023-02-06T14:17:17.972Z,53.43
2023-02-06T14:20:14.141Z,52.88
2023-02-06T14:23:14.450Z,53.44
2023-02-06T14:26:05.144Z,53.42
2023-02-06T14:29:07.218Z,54.29
2023-02-06T14:32:03.948Z,52.36
2023-02-06T14:35:12.291Z,52.74
2023-02-06T14:37:55.870Z,52.94
2023-02-06T14:40:34.078Z,54.00
2023-02-06T14:43:10.897Z,51.86
2023-02-06T14:45:42.852Z,53.72
2023-02-06T14:48:44.026Z,54.27
2023-02-06T14:51:25.237Z,52.70
2023-02-06T14:54:01.386Z,53.81
2023-02-06T14:56:39.246Z,54.81
2023-02-06T14:59:17.860Z,54.88
2023-02-06T15:01:48.945Z,54.04
2023-02-06T15:04:28.769Z,53.59
2023-02-06T15:07:01.945Z,54.26
2023-02-06T15:09:43.859Z,55.08
2023-02-06T15:12:24.838Z,54.86
2023-02-06T15:14:54.996Z,54.81
2023-02-06T15:17:26.377Z,54.92
2023-02-06T15:19:52.930Z,54.86
2023-02-06T15:22:30.049Z,54.69
2023-02-06T15:25:23.553Z,55.00
2023-02-06T15:28:04.601Z,54.65
2023-02-06T15:30:34.820Z,54.93
2023-02-06T15:33:01.894Z,55.76
2023-02-06T15:35:35.766Z,56.44
2023-02-06T15:38:15.696Z,56.94
2023-02-06T15:40:49.789Z,57.01
2023-02-06T15:43:25.178Z,56.86
2023-02-06T15:45:56.205Z,57.28
2023-02-06T15:48:46.258Z,56.67
2023-02-06T15:51:28.081Z,57.26
2023-02-06T15:54:16.058Z,56.69
2023-02-06T15:56:49.133Z,57.42
2023-02-06T15:59:23.994Z,56.92
2023-02-06T16:01:54.133Z,57.41
2023-02-06T16:04:31.731Z,57.28
2023-02-06T16:07:06.689Z,58.64
2023-02-06T16:09:43.136Z,58.59
2023-02-06T16:12:10.726Z,59.15
2023-02-06T16:14:41.250Z,58.64
2023-02-06T16:17:13.656Z,58.74
2023-02-06T16:19:52.088Z,59.01
2023-02-06T16:22:39.888Z,59.45
2023-02-06T16:25:26.038Z,59.55
2023-02-06T16:27:53.356Z,59.70
2023-02-06T16:30:36.522Z,59.66
2023-02-06T16:33:44.678Z,59.66
2023-02-06T16:36:15.184Z,59.75
2023-02-06T16:38:46.336Z,59.65
2023-02-06T16:41:38.852Z,59.48
2023-02-06T16:44:14.896Z,60.11
2023-02-06T16:46:42.141Z,59.74
2023-02-06T16:49:19.207Z,59.89
2023-02-06T16:51:48.605Z,60.72
2023-02-06T16:54:29.202Z,60.72
2023-02-06T16:57:07.148Z,60.63
2023-02-06T16:59:33.641Z,60.57
2023-02-06T17:02:00.188Z,61.04
2023-02-06T17:04:26.686Z,60.60
2023-02-06T17:06:53.252Z,61.45
2023-02-06T17:09:19.851Z,60.97
2023-02-06T17:11:46.407Z,61.20
2023-02-06T17:14:12.935Z,61.20
2023-02-06T17:16:39.665Z,61.80
2023-02-06T17:19:06.121Z,61.76
2023-02-06T17:21:33.060Z,62.17
2023-02-06T17:23:59.997Z,62.42
2023-02-06T17:26:26.803Z,62.40
2023-02-06T17:28:53.621Z,62.24
2023-02-06T17:31:20.787Z,62.55
2023-02-06T17:33:47.775Z,62.73
2023-02-06T17:36:29.277Z,62.33
2023-02-06T17:38:58.855Z,62.75
2023-02-06T17:41:27.419Z,63.14
2023-02-06T17:43:53.948Z,62.61
2023-02-06T17:46:20.495Z,62.33
2023-02-06T17:48:47.033Z,62.59
2023-02-06T17:51:13.693Z,63.49
2023-02-06T17:53:40.352Z,63.70
2023-02-06T17:56:12.708Z,63.27
2023-02-06T17:58:43.360Z,63.71
2023-02-06T18:01:16.325Z,63.56
2023-02-06T18:03:43.401Z,63.59
2023-02-06T18:06:10.979Z,63.75
2023-02-06T18:08:38.873Z,64.46
2023-02-06T18:11:21.287Z,64.04
2023-02-06T18:13:49.803Z,64.01
2023-02-06T18:16:22.148Z,63.84
2023-02-06T18:18:50.058Z,63.48
2023-02-06T18:21:19.378Z,63.68
2023-02-06T18:23:47.720Z,63.34
2023-02-06T18:26:14.649Z,63.80
2023-02-06T18:28:41.340Z,64.63
2023-02-06T18:31:25.821Z,64.32
2023-02-06T18:33:53.214Z,64.55
2023-02-06T18:36:20.859Z,64.54
2023-02-06T18:38:47.643Z,64.50
2023-02-06T18:41:32.966Z,64.42
2023-02-06T18:44:02.465Z,64.24
2023-02-06T18:46:29.033Z,64.69
2023-02-06T18:48:56.040Z,65.28
2023-02-06T18:51:23.702Z,64.85
2023-02-06T18:53:50.494Z,64.96
2023-02-06T18:56:17.176Z,65.48
2023-02-06T18:58:43.901Z,66.06
2023-02-06T19:01:23.593Z,66.21
2023-02-06T19:03:52.076Z,65.74
2023-02-06T19:06:29.843Z,65.63
2023-02-06T19:08:57.210Z,66.52
2023-02-06T19:11:24.074Z,67.09
2023-02-06T19:13:50.563Z,67.33
2023-02-06T19:16:19.914Z,67.00
2023-02-06T19:18:48.957Z,66.49
2023-02-06T19:21:19.189Z,65.96
2023-02-06T19:23:54.004Z,65.96
2023-02-06T19:26:20.501Z,66.77
2023-02-06T19:28:47.085Z,66.44
2023-02-06T19:31:15.254Z,66.09
2023-02-06T19:33:41.906Z,65.83
2023-02-06T19:36:11.660Z,65.55
2023-02-06T19:38:38.627Z,66.07
2023-02-06T19:41:14.134Z,66.55
2023-02-06T19:43:42.416Z,66.73
2023-02-06T19:46:13.195Z,66.28
2023-02-06T19:48:45.364Z,66.74
2023-02-06T19:51:25.240Z,66.22
2023-02-06T19:53:55.172Z,66.22
2023-02-06T19:56:37.295Z,65.93
2023-02-06T19:59:19.781Z,65.79
2023-02-06T20:01:54.031Z,65.97
2023-02-06T20:04:24.743Z,65.94
2023-02-06T20:06:51.817Z,66.48
2023-02-06T20:09:20.633Z,66.62
2023-02-06T20:11:48.994Z,66.73
2023-02-06T20:14:20.536Z,67.32
2023-02-06T20:16:48.899Z,67.35
2023-02-06T20:19:25.937Z,67.61
2023-02-06T20:21:57.712Z,67.79
2023-02-06T20:24:28.973Z,67.53
2023-02-06T20:27:00.160Z,67.36
2023-02-06T20:29:31.678Z,67.39
2023-02-06T20:31:59.589Z,67.33
2023-02-06T20:34:27.080Z,68.20
2023-02-06T20:36:55.468Z,67.95
2023-02-06T20:39:22.181Z,68.18
2023-02-06T20:41:50.187Z,67.85
2023-02-06T20:44:19.396Z,68.05
2023-02-06T20:46:46.489Z,68.43
2023-02-06T20:49:21.054Z,67.86
2023-02-06T20:51:51.553Z,68.16
2023-02-06T20:54:20.588Z,67.74
2023-02-06T20:56:47.604Z,67.59
2023-02-06T20:59:20.299Z,67.22
2023-02-06T21:01:47.614Z,67.56
2023-02-06T21:04:16.177Z,67.47
2023-02-06T21:06:43.225Z,67.45
2023-02-06T21:09:10.995Z,67.88
2023-02-06T21:11:44.998Z,67.42
2023-02-06T21:14:12.547Z,67.40
2023-02-06T21:16:39.726Z,67.15
2023-02-06T21:19:09.738Z,66.91
2023-02-06T21:21:37.744Z,66.80
2023-02-06T21:24:04.848Z,67.60
2023-02-06T21:26:32.962Z,67.66
2023-02-06T21:29:02.292Z,67.40
2023-02-06T21:31:36.012Z,67.60
2023-02-06T21:34:21.718Z,67.14
2023-02-06T21:36:49.272Z,66.48
2023-02-06T21:39:26.706Z,66.10
2023-02-06T21:41:54.936Z,66.91
2023-02-06T21:44:24.329Z,66.88
2023-02-06T21:46:52.031Z,67.13
2023-02-06T21:49:19.595Z,67.49
2023-02-06T21:51:46.336Z,67.99
2023-02-06T21:54:12.812Z,68.07
2023-02-06T21:56:39.446Z,68.17
2023-02-06T21:59:07.451Z,68.63
2023-02-06T22:01:34.916Z,69.06
2023-02-06T22:04:03.074Z,68.23
2023-02-06T22:06:29.767Z,68.91
2023-02-06T22:09:04.407Z,68.76
2023-02-06T22:11:31.736Z,68.79
2023-02-06T22:14:07.052Z,68.20
2023-02-06T22:16:34.443Z,68.26
2023-02-06T22:19:00.929Z,68.48
2023-02-06T22:21:30.575Z,67.89
2023-02-06T22:24:01.058Z,67.75
2023-02-06T22:26:30.027Z,67.67
2023-02-06T22:29:03.474Z,67.42
2023-02-06T22:31:33.055Z,67.17
2023-02-06T22:34:01.048Z,66.84
2023-02-06T22:36:32.314Z,66.82
2023-02-06T22:39:09.122Z,67.22
2023-02-06T22:41:40.679Z,66.78
2023-02-06T22:44:07.509Z,66.72
2023-02-06T22:46:38.442Z,66.59
2023-02-06T22:49:07.275Z,66.70
2023-02-06T22:51:35.830Z,66.57
2023-02-06T22:54:03.816Z,66.43
2023-02-06T22:56:37.301Z,66.70
2023-02-06T22:59:20.237Z,66.06
2023-02-06T23:01:52.445Z,66.10
2023-02-06T23:04:28.124Z,65.96
2023-02-06T23:06:55.514Z,66.52
2023-02-06T23:09:31.684Z,66.10
2023-02-06T23:11:59.651Z,66.13
2023-02-06T23:14:29.285Z,66.29
2023-02-06T23:16:56.134Z,66.26
2023-02-06T23:19:22.787Z,65.81
2023-02-06T23:21:54.002Z,65.39
2023-02-06T23:24:21.291Z,66.01
2023-02-06T23:26:50.605Z,66.07
2023-02-06T23:29:19.454Z,65.44
2023-02-06T23:31:47.583Z,65.32
2023-02-06T23:34:16.652Z,64.81
2023-02-06T23:36:46.076Z,64.82
2023-02-06T23:39:13.249Z,64.84
2023-02-06T23:41:40.323Z,64.97
2023-02-06T23:44:08.649Z,65.10
2023-02-06T23:46:38.002Z,65.27
2023-02-06T23:49:06.331Z,65.02
2023-02-06T23:51:33.289Z,64.31
2023-02-06T23:53:59.953Z,64.48
2023-02-06T23:56:29.821Z,64.34
2023-02-06T23:58:58.505Z,64.57
